createdAt,value
2022-11-25T00:01:29.316Z,98995.75
2022-11-25T00:03:57.549Z,99004.47
2022-11-25T00:06:26.433Z,99003.16
2022-11-25T00:08:59.006Z,99003.66
2022-11-25T00:11:26.448Z,98999.28
2022-11-25T00:13:54.196Z,98997.47
2022-11-25T00:16:22.662Z,98993.09
2022-11-25T00:18:54.168Z,98998.81
2022-11-25T00:21:22.899Z,98984.16
2022-11-25T00:23:56.997Z,98985.25
2022-11-25T00:26:24.830Z,98987.56
2022-11-25T00:28:52.206Z,98987.66
2022-11-25T00:31:24.557Z,98991.66
2022-11-25T00:33:51.747Z,98993.34
2022-11-25T00:36:29.946Z,98991.53
2022-11-25T00:38:59.028Z,99001.22
2022-11-25T00:41:45.306Z,98996.84
2022-11-25T00:44:33.699Z,98999.16
2022-11-25T00:47:01.249Z,98990.94
2022-11-25T00:49:28.413Z,99000.72
2022-11-25T00:51:55.432Z,99006.31
2022-11-25T00:54:21.950Z,99014.50
2022-11-25T00:56:48.342Z,99018.72
2022-11-25T00:59:16.072Z,99009.78
2022-11-25T01:01:42.454Z,99010.41
2022-11-25T01:04:09.664Z,99006.91
2022-11-25T01:06:37.602Z,99008.94
2022-11-25T01:09:06.122Z,99002.69
2022-11-25T01:11:33.136Z,98998.06
2022-11-25T01:14:01.629Z,99002.44
2022-11-25T01:16:29.326Z,98991.53
2022-11-25T01:18:56.076Z,98985.84
2022-11-25T01:21:25.412Z,98976.53
2022-11-25T01:23:52.890Z,98975.31
2022-11-25T01:26:24.212Z,98994.22
2022-11-25T01:28:59.468Z,98981.97
2022-11-25T01:31:29.126Z,98981.63
2022-11-25T01:34:01.532Z,98977.59
2022-11-25T01:36:28.687Z,98974.81
2022-11-25T01:38:57.772Z,98970.72
2022-11-25T01:41:26.635Z,98964.91
2022-11-25T01:44:05.922Z,98963.22
2022-11-25T01:46:55.316Z,98969.28
2022-11-25T01:49:30.995Z,98977.00
2022-11-25T01:52:08.239Z,98970.00
2022-11-25T01:54:44.039Z,98977.00
2022-11-25T01:57:19.556Z,98973.75
2022-11-25T01:59:51.364Z,98968.03
2022-11-25T02:02:18.895Z,98979.06
2022-11-25T02:04:46.863Z,98976.75
2022-11-25T02:07:26.147Z,98975.31
2022-11-25T02:09:53.905Z,98976.88
2022-11-25T02:12:20.846Z,98968.66
2022-11-25T02:14:50.651Z,98962.63
2022-11-25T02:17:17.719Z,98960.19
2022-11-25T02:19:57.042Z,98964.69
2022-11-25T02:22:59.056Z,98961.03
2022-11-25T02:25:31.282Z,98963.69
2022-11-25T02:28:02.827Z,98960.53
2022-11-25T02:30:29.296Z,98961.63
2022-11-25T02:32:55.758Z,98956.66
2022-11-25T02:35:25.264Z,98958.94
2022-11-25T02:37:53.901Z,98952.38
2022-11-25T02:40:20.541Z,98948.19
2022-11-25T02:42:49.868Z,98954.94
2022-11-25T02:45:21.680Z,98961.59
2022-11-25T02:47:48.144Z,98951.31
2022-11-25T02:50:14.991Z,98952.88
2022-11-25T02:52:41.427Z,98953.00
2022-11-25T02:55:08.345Z,98939.41
2022-11-25T02:57:34.695Z,98941.13
2022-11-25T03:00:01.431Z,98941.13
2022-11-25T03:02:27.925Z,98942.84
2022-11-25T03:04:54.461Z,98932.53
2022-11-25T03:07:20.899Z,98927.47
2022-11-25T03:09:47.682Z,98926.09
2022-11-25T03:12:19.963Z,98925.63
2022-11-25T03:14:46.795Z,98925.63
2022-11-25T03:17:14.286Z,98925.38
2022-11-25T03:19:40.940Z,98915.84
2022-11-25T03:22:07.389Z,98912.97
2022-11-25T03:24:34.324Z,98924.78
2022-11-25T03:27:01.058Z,98940.91
2022-11-25T03:29:27.680Z,98941.66
2022-11-25T03:31:54.166Z,98948.69
2022-11-25T03:34:20.773Z,98940.94
2022-11-25T03:36:47.193Z,98939.47
2022-11-25T03:39:13.801Z,98937.53
2022-11-25T03:41:40.247Z,98931.97
2022-11-25T03:44:06.809Z,98933.91
2022-11-25T03:46:33.501Z,98933.19
2022-11-25T03:48:59.988Z,98930.88
2022-11-25T03:51:26.360Z,98929.66
2022-11-25T03:53:52.848Z,98922.00
2022-11-25T03:56:19.228Z,98925.88
2022-11-25T03:58:45.742Z,98921.75
2022-11-25T04:01:12.155Z,98921.28
2022-11-25T04:03:38.732Z,98916.56
2022-11-25T04:06:05.153Z,98919.59
2022-11-25T04:08:31.709Z,98925.88
2022-11-25T04:10:58.108Z,98925.88
2022-11-25T04:13:24.706Z,98932.81
2022-11-25T04:15:51.838Z,98932.41
2022-11-25T04:18:19.618Z,98926.84
2022-11-25T04:20:46.611Z,98933.03
2022-11-25T04:23:13.909Z,98933.88
2022-11-25T04:25:40.677Z,98941.50
2022-11-25T04:28:07.033Z,98938.72
2022-11-25T04:30:34.270Z,98949.03
2022-11-25T04:33:01.468Z,98950.81
2022-11-25T04:35:27.903Z,98948.16
2022-11-25T04:37:54.361Z,98950.81
2022-11-25T04:40:20.965Z,98945.22
2022-11-25T04:42:47.426Z,98932.63
2022-11-25T04:45:24.026Z,98943.53
2022-11-25T04:47:51.321Z,98947.78
2022-11-25T04:50:21.482Z,98942.31
2022-11-25T04:52:47.996Z,98954.78
2022-11-25T04:55:14.703Z,98956.59
2022-11-25T04:57:41.224Z,98961.16
2022-11-25T05:00:09.468Z,98965.91
2022-11-25T05:02:36.030Z,98961.69
2022-11-25T05:05:02.746Z,98967.03
2022-11-25T05:07:29.189Z,98963.25
2022-11-25T05:09:56.373Z,98973.41
2022-11-25T05:12:26.701Z,98975.09
2022-11-25T05:14:53.213Z,98996.69
2022-11-25T05:17:22.718Z,98994.63
2022-11-25T05:19:50.100Z,98987.69
2022-11-25T05:22:19.245Z,98991.81
2022-11-25T05:24:45.819Z,98997.78
2022-11-25T05:27:16.221Z,98999.22
2022-11-25T05:29:43.346Z,98990.97
2022-11-25T05:32:09.968Z,98986.75
2022-11-25T05:34:37.683Z,98994.09
2022-11-25T05:37:04.331Z,98995.66
2022-11-25T05:39:31.387Z,99008.28
2022-11-25T05:41:57.865Z,99013.34
2022-11-25T05:44:24.671Z,99014.22
2022-11-25T05:46:51.428Z,99016.63
2022-11-25T05:49:19.169Z,99014.22
2022-11-25T05:51:45.923Z,99014.22
2022-11-25T05:54:14.615Z,99020.13
2022-11-25T05:56:41.388Z,99028.84
2022-11-25T05:59:15.914Z,99026.31
2022-11-25T06:01:42.319Z,99021.81
2022-11-25T06:04:18.823Z,99019.03
2022-11-25T06:06:45.150Z,99027.84
2022-11-25T06:09:20.892Z,99030.91
2022-11-25T06:11:47.313Z,99028.41
2022-11-25T06:14:14.795Z,99039.09
2022-11-25T06:16:41.349Z,99031.38
2022-11-25T06:19:08.973Z,99041.75
2022-11-25T06:21:36.641Z,99041.56
2022-11-25T06:24:03.381Z,99055.63
2022-11-25T06:26:30.922Z,99051.22
2022-11-25T06:28:57.307Z,99047.63
2022-11-25T06:31:25.985Z,99055.69
2022-11-25T06:33:53.627Z,99059.84
2022-11-25T06:36:21.592Z,99059.84
2022-11-25T06:38:51.332Z,99058.28
2022-11-25T06:41:18.080Z,99068.94
2022-11-25T06:43:44.497Z,99061.66
2022-11-25T06:46:14.194Z,99065.28
2022-11-25T06:48:41.471Z,99063.63
2022-11-25T06:51:11.139Z,99071.63
2022-11-25T06:53:38.358Z,99085.06
2022-11-25T06:56:06.033Z,99079.22
2022-11-25T06:58:36.721Z,99079.38
2022-11-25T07:01:12.014Z,99079.38
2022-11-25T07:03:39.091Z,99080.81
2022-11-25T07:06:06.107Z,99084.56
2022-11-25T07:08:34.290Z,99089.63
2022-11-25T07:11:10.452Z,99081.75
2022-11-25T07:13:37.038Z,99075.59
2022-11-25T07:16:05.747Z,99077.13
2022-11-25T07:18:34.665Z,99087.38
2022-11-25T07:21:13.715Z,99082.03
2022-11-25T07:23:41.098Z,99084.69
2022-11-25T07:26:19.828Z,99088.81
2022-11-25T07:28:46.201Z,99098.09
2022-11-25T07:31:35.792Z,99102.09
2022-11-25T07:34:05.314Z,99104.28
2022-11-25T07:36:32.710Z,99109.63
2022-11-25T07:39:01.826Z,99116.19
2022-11-25T07:41:29.512Z,99111.31
2022-11-25T07:43:58.774Z,99118.63
2022-11-25T07:46:29.813Z,99123.69
2022-11-25T07:48:59.011Z,99122.25
2022-11-25T07:51:29.079Z,99134.09
2022-11-25T07:53:57.528Z,99140.06
2022-11-25T07:56:24.598Z,99140.91
2022-11-25T07:58:51.196Z,99134.84
2022-11-25T08:01:18.784Z,99130.13
2022-11-25T08:03:46.810Z,99130.13
2022-11-25T08:06:15.848Z,99128.44
2022-11-25T08:08:42.855Z,99146.97
2022-11-25T08:11:12.107Z,99142.13
2022-11-25T08:13:39.331Z,99143.63
2022-11-25T08:16:06.771Z,99152.69
2022-11-25T08:18:33.384Z,99145.56
2022-11-25T08:21:01.993Z,99167.84
2022-11-25T08:23:28.460Z,99157.19
2022-11-25T08:25:54.844Z,99162.03
2022-11-25T08:28:21.652Z,99166.19
2022-11-25T08:30:48.224Z,99172.13
2022-11-25T08:33:14.661Z,99173.06
2022-11-25T08:35:41.073Z,99177.81
2022-11-25T08:38:11.116Z,99176.56
2022-11-25T08:40:37.882Z,99180.09
2022-11-25T08:43:05.069Z,99196.06
2022-11-25T08:45:31.465Z,99191.81
2022-11-25T08:47:58.051Z,99186.44
2022-11-25T08:50:25.192Z,99189.69
2022-11-25T08:52:51.976Z,99190.81
2022-11-25T08:55:18.614Z,99196.50
2022-11-25T08:57:45.026Z,99197.56
2022-11-25T09:00:12.143Z,99212.63
2022-11-25T09:02:38.932Z,99212.63
2022-11-25T09:05:05.589Z,99208.00
2022-11-25T09:07:32.205Z,99215.31
2022-11-25T09:09:59.084Z,99214.72
2022-11-25T09:12:25.428Z,99214.91
2022-11-25T09:14:52.026Z,99218.19
2022-11-25T09:17:18.716Z,99227.34
2022-11-25T09:19:45.231Z,99230.47
2022-11-25T09:22:11.581Z,99227.53
2022-11-25T09:24:38.030Z,99235.13
2022-11-25T09:27:05.301Z,99242.53
2022-11-25T09:29:31.917Z,99231.31
2022-11-25T09:31:58.451Z,99233.84
2022-11-25T09:34:25.029Z,99241.03
2022-11-25T09:36:51.838Z,99244.94
2022-11-25T09:39:18.628Z,99249.38
2022-11-25T09:42:22.563Z,99254.72
2022-11-25T09:45:29.936Z,99252.09
2022-11-25T09:48:28.874Z,99250.94
2022-11-25T09:51:12.015Z,99264.00
2022-11-25T09:53:53.936Z,99262.63
2022-11-25T09:56:29.823Z,99261.47
2022-11-25T09:59:14.898Z,99279.63
2022-11-25T10:01:54.107Z,99275.03
2022-11-25T10:04:53.552Z,99281.28
2022-11-25T10:07:28.712Z,99279.13
2022-11-25T10:09:56.390Z,99285.88
2022-11-25T10:12:32.637Z,99292.38
2022-11-25T10:15:02.815Z,99286.06
2022-11-25T10:17:37.978Z,99295.50
2022-11-25T10:20:19.629Z,99291.56
2022-11-25T10:22:49.385Z,99294.13
2022-11-25T10:25:20.375Z,99288.38
2022-11-25T10:27:59.257Z,99299.59
2022-11-25T10:30:37.816Z,99294.84
2022-11-25T10:33:18.280Z,99297.44
2022-11-25T10:35:53.524Z,99297.38
2022-11-25T10:38:35.296Z,99295.22
2022-11-25T10:41:04.442Z,99286.50
2022-11-25T10:43:39.141Z,99287.50
2022-11-25T10:46:16.463Z,99279.53
2022-11-25T10:49:04.708Z,99284.59
2022-11-25T10:51:50.175Z,99277.63
2022-11-25T10:54:39.373Z,99285.53
2022-11-25T10:57:20.326Z,99292.91
2022-11-25T11:00:06.186Z,99297.00
2022-11-25T11:02:35.594Z,99304.22
2022-11-25T11:05:18.196Z,99301.88
2022-11-25T11:07:46.781Z,99301.78
2022-11-25T11:10:22.868Z,99305.44
2022-11-25T11:13:03.167Z,99298.09
2022-11-25T11:15:31.234Z,99301.47
2022-11-25T11:18:19.473Z,99300.66
2022-11-25T11:20:48.000Z,99305.44
2022-11-25T11:23:15.364Z,99307.53
2022-11-25T11:25:44.173Z,99324.06
2022-11-25T11:28:28.077Z,99318.44
2022-11-25T11:31:02.200Z,99328.56
2022-11-25T11:33:49.053Z,99325.78
2022-11-25T11:36:45.424Z,99318.88
2022-11-25T11:39:24.096Z,99328.88
2022-11-25T11:42:08.382Z,99325.47
2022-11-25T11:44:52.241Z,99318.72
2022-11-25T11:47:40.672Z,99316.03
2022-11-25T11:50:47.518Z,99318.28
2022-11-25T11:53:35.117Z,99314.47
2022-11-25T11:58:57.514Z,99312.50
2022-11-25T12:01:51.758Z,99328.88
2022-11-25T12:04:30.476Z,99326.63
2022-11-25T12:07:11.590Z,99341.59
2022-11-25T12:09:48.630Z,99342.56
2022-11-25T12:12:19.293Z,99347.66
2022-11-25T12:14:50.700Z,99355.69
2022-11-25T12:17:31.716Z,99367.53
2022-11-25T12:20:31.721Z,99369.69
2022-11-25T12:23:02.554Z,99352.31
2022-11-25T12:25:41.743Z,99343.00
2022-11-25T12:28:18.004Z,99337.47
2022-11-25T12:31:06.988Z,99335.34
2022-11-25T12:33:43.980Z,99349.44
2022-11-25T12:36:17.809Z,99352.72
2022-11-25T12:38:55.976Z,99348.66
2022-11-25T12:41:35.987Z,99351.19
2022-11-25T12:44:08.472Z,99348.38
2022-11-25T12:46:47.146Z,99354.56
2022-11-25T12:49:24.517Z,99365.03
2022-11-25T12:52:09.665Z,99370.69
2022-11-25T12:55:04.407Z,99388.19
2022-11-25T12:58:09.041Z,99383.78
2022-11-25T13:01:01.774Z,99374.50
2022-11-25T13:04:05.673Z,99381.38
2022-11-25T13:06:38.853Z,99382.66
2022-11-25T13:09:27.926Z,99395.78
2022-11-25T13:12:22.232Z,99402.28
2022-11-25T13:15:17.690Z,99408.06
2022-11-25T13:17:47.288Z,99410.03
2022-11-25T13:20:29.056Z,99413.28
2022-11-25T13:23:10.722Z,99415.66
2022-11-25T13:25:40.002Z,99422.84
2022-11-25T13:28:36.375Z,99415.25
2022-11-25T13:31:31.402Z,99422.75
2022-11-25T13:33:57.882Z,99423.03
2022-11-25T13:36:42.938Z,99417.41
2022-11-25T13:39:18.783Z,99429.66
2022-11-25T13:41:58.551Z,99430.50
2022-11-25T13:44:46.583Z,99428.13
2022-11-25T13:47:28.362Z,99427.13
2022-11-25T13:49:58.495Z,99426.56
2022-11-25T13:52:27.601Z,99420.66
2022-11-25T13:54:56.582Z,99421.78
2022-11-25T13:57:36.626Z,99432.47
2022-11-25T14:00:10.126Z,99434.72
2022-11-25T14:02:44.904Z,99432.50
2022-11-25T14:05:44.830Z,99437.25
2022-11-25T14:08:58.791Z,99444.31
2022-11-25T14:11:51.707Z,99456.47
2022-11-25T14:14:49.234Z,99460.53
2022-11-25T14:17:28.587Z,99464.06
2022-11-25T14:20:09.961Z,99475.06
2022-11-25T14:22:45.470Z,99468.50
2022-11-25T14:25:24.967Z,99477.97
2022-11-25T14:28:02.383Z,99480.50
2022-11-25T14:30:31.111Z,99475.41
2022-11-25T14:33:02.952Z,99485.69
2022-11-25T14:36:09.154Z,99489.19
2022-11-25T14:38:47.293Z,99483.75
2022-11-25T14:41:19.323Z,99492.19
2022-11-25T14:43:55.641Z,99497.94
2022-11-25T14:46:25.458Z,99493.72
2022-11-25T14:49:00.320Z,99493.38
2022-11-25T14:51:37.766Z,99497.06
2022-11-25T14:54:08.527Z,99506.56
2022-11-25T14:56:36.916Z,99514.44
2022-11-25T14:59:03.979Z,99509.59
2022-11-25T15:01:32.534Z,99516.44
2022-11-25T15:04:19.609Z,99519.50
2022-11-25T15:06:56.697Z,99525.88
2022-11-25T15:09:26.245Z,99536.63
2022-11-25T15:12:08.245Z,99527.03
2022-11-25T15:14:38.222Z,99536.91
2022-11-25T15:17:09.681Z,99534.41
2022-11-25T15:19:37.612Z,99544.88
2022-11-25T15:22:23.678Z,99549.50
2022-11-25T15:24:55.506Z,99547.69
2022-11-25T15:27:28.393Z,99558.41
2022-11-25T15:29:57.235Z,99562.00
2022-11-25T15:32:29.854Z,99554.22
2022-11-25T15:34:59.414Z,99567.44
2022-11-25T15:37:26.021Z,99574.47
2022-11-25T15:40:30.191Z,99579.78
2022-11-25T15:42:59.354Z,99580.38
2022-11-25T15:45:29.763Z,99592.38
2022-11-25T15:47:57.043Z,99594.31
2022-11-25T15:50:26.645Z,99599.88
2022-11-25T15:52:56.053Z,99609.81
2022-11-25T15:55:28.248Z,99610.03
2022-11-25T15:57:58.176Z,99622.66
2022-11-25T16:00:24.904Z,99629.81
2022-11-25T16:02:54.896Z,99634.69
2022-11-25T16:05:26.183Z,99630.94
2022-11-25T16:07:52.642Z,99637.75
2022-11-25T16:10:23.082Z,99641.97
2022-11-25T16:13:33.399Z,99652.09
2022-11-25T16:16:26.217Z,99649.22
2022-11-25T16:19:02.025Z,99658.22
2022-11-25T16:21:38.892Z,99666.75
2022-11-25T16:24:05.286Z,99667.38
2022-11-25T16:26:37.849Z,99669.56
2022-11-25T16:29:22.527Z,99676.88
2022-11-25T16:31:49.003Z,99682.84
2022-11-25T16:34:18.587Z,99688.94
2022-11-25T16:36:45.441Z,99687.63
2022-11-25T16:39:12.442Z,99687.41
2022-11-25T16:41:41.156Z,99685.09
2022-11-25T16:44:19.508Z,99688.16
2022-11-25T16:46:45.996Z,99701.38
2022-11-25T16:49:18.657Z,99700.06
2022-11-25T16:51:45.438Z,99707.72
2022-11-25T16:54:12.755Z,99695.31
2022-11-25T16:56:43.135Z,99690.59
2022-11-25T16:59:16.874Z,99702.63
2022-11-25T17:01:43.999Z,99697.88
2022-11-25T17:04:15.259Z,99701.16
2022-11-25T17:06:42.223Z,99712.13
2022-11-25T17:09:09.016Z,99721.34
2022-11-25T17:11:46.147Z,99724.41
2022-11-25T17:14:23.866Z,99731.31
2022-11-25T17:16:50.701Z,99736.78
2022-11-25T17:19:17.245Z,99731.81
2022-11-25T17:21:44.166Z,99731.34
2022-11-25T17:24:15.726Z,99729.19
2022-11-25T17:26:44.235Z,99729.63
2022-11-25T17:29:18.239Z,99732.78
2022-11-25T17:31:45.541Z,99741.53
2022-11-25T17:34:15.494Z,99751.38
2022-11-25T17:36:43.617Z,99754.19
2022-11-25T17:39:14.464Z,99743.09
2022-11-25T17:41:47.417Z,99744.94
2022-11-25T17:44:28.552Z,99755.25
2022-11-25T17:46:56.755Z,99764.22
2022-11-25T17:49:23.849Z,99768.19
2022-11-25T17:51:50.580Z,99772.53
2022-11-25T17:54:17.793Z,99783.22
2022-11-25T17:56:50.702Z,99792.03
2022-11-25T17:59:25.272Z,99795.44
2022-11-25T18:01:52.155Z,99800.50
2022-11-25T18:04:24.019Z,99807.16
2022-11-25T18:06:50.799Z,99823.41
2022-11-25T18:09:17.725Z,99829.19
2022-11-25T18:11:48.125Z,99844.69
2022-11-25T18:14:20.619Z,99841.28
2022-11-25T18:16:47.640Z,99842.38
2022-11-25T18:19:14.069Z,99851.13
2022-11-25T18:21:41.239Z,99852.94
2022-11-25T18:24:07.887Z,99855.63
2022-11-25T18:26:43.387Z,99854.53
2022-11-25T18:29:15.735Z,99867.66
2022-11-25T18:31:42.462Z,99869.50
2022-11-25T18:34:15.654Z,99869.88
2022-11-25T18:36:43.256Z,99866.66
2022-11-25T18:39:10.762Z,99873.94
2022-11-25T18:41:38.929Z,99877.88
2022-11-25T18:44:07.296Z,99878.59
2022-11-25T18:46:37.544Z,99879.97
2022-11-25T18:49:15.149Z,99884.69
2022-11-25T18:51:42.794Z,99885.19
2022-11-25T18:54:09.345Z,99896.28
2022-11-25T18:56:38.177Z,99900.31
2022-11-25T18:59:06.349Z,99904.94
2022-11-25T19:01:33.230Z,99904.53
2022-11-25T19:04:00.098Z,99907.69
2022-11-25T19:06:29.812Z,99912.03
2022-11-25T19:08:56.674Z,99924.16
2022-11-25T19:11:30.593Z,99918.88
2022-11-25T19:14:08.830Z,99921.69
2022-11-25T19:16:35.671Z,99922.91
2022-11-25T19:19:02.719Z,99939.38
2022-11-25T19:21:30.634Z,99944.56
2022-11-25T19:23:57.069Z,99946.59
2022-11-25T19:26:29.832Z,99954.63
2022-11-25T19:29:02.674Z,99959.44
2022-11-25T19:31:32.844Z,99956.66
2022-11-25T19:34:00.348Z,99968.41
2022-11-25T19:36:30.990Z,99971.16
2022-11-25T19:38:58.010Z,99978.13
2022-11-25T19:41:24.472Z,99989.56
2022-11-25T19:43:50.866Z,99983.38
2022-11-25T19:46:29.405Z,99995.44
2022-11-25T19:48:59.882Z,99989.44
2022-11-25T19:51:31.407Z,99993.91
2022-11-25T19:53:57.763Z,99992.97
2022-11-25T19:56:26.826Z,99999.41
2022-11-25T19:58:54.624Z,100005.69
2022-11-25T20:01:25.261Z,100004.09
2022-11-25T20:03:51.875Z,100007.94
2022-11-25T20:06:19.722Z,100012.94
2022-11-25T20:08:47.109Z,100013.94
2022-11-25T20:11:15.835Z,100016.50
2022-11-25T20:13:43.683Z,100021.84
2022-11-25T20:16:17.166Z,100012.00
2022-11-25T20:18:44.326Z,100016.94
2022-11-25T20:21:18.773Z,100030.78
2022-11-25T20:23:46.531Z,100034.75
2022-11-25T20:26:29.805Z,100038.91
2022-11-25T20:28:56.785Z,100047.34
2022-11-25T20:31:28.754Z,100048.09
2022-11-25T20:33:56.752Z,100049.38
2022-11-25T20:36:28.601Z,100055.75
2022-11-25T20:38:56.118Z,100055.75
2022-11-25T20:41:27.746Z,100062.59
2022-11-25T20:43:57.617Z,100066.34
2022-11-25T20:46:29.937Z,100067.94
2022-11-25T20:48:59.319Z,100066.03
2022-11-25T20:51:26.431Z,100076.72
2022-11-25T20:53:57.225Z,100078.41
2022-11-25T20:56:25.776Z,100082.69
2022-11-25T20:58:52.701Z,100086.00
2022-11-25T21:01:19.341Z,100089.03
2022-11-25T21:03:47.229Z,100093.81
2022-11-25T21:06:27.471Z,100095.31
2022-11-25T21:08:59.016Z,100098.28
2022-11-25T21:11:27.675Z,100102.38
2022-11-25T21:13:54.657Z,100108.13
2022-11-25T21:16:21.212Z,100110.94
2022-11-25T21:18:47.884Z,100117.66
2022-11-25T21:21:18.330Z,100122.25
2022-11-25T21:23:47.384Z,100121.31
2022-11-25T21:26:19.652Z,100122.38
2022-11-25T21:28:47.831Z,100124.09
2022-11-25T21:31:16.693Z,100123.97
2022-11-25T21:33:44.437Z,100128.16
2022-11-25T21:36:21.370Z,100128.28
2022-11-25T21:38:49.834Z,100129.75
2022-11-25T21:41:16.618Z,100133.38
2022-11-25T21:43:46.740Z,100147.72
2022-11-25T21:46:21.910Z,100147.41
2022-11-25T21:48:48.352Z,100142.16
2022-11-25T21:51:21.716Z,100150.19
2022-11-25T21:53:49.065Z,100154.56
2022-11-25T21:56:25.108Z,100152.63
2022-11-25T21:58:51.689Z,100163.66
2022-11-25T22:01:18.653Z,100156.59
2022-11-25T22:03:45.199Z,100157.44
2022-11-25T22:06:29.620Z,100165.69
2022-11-25T22:08:56.908Z,100167.59
2022-11-25T22:11:31.676Z,100171.25
2022-11-25T22:13:59.536Z,100165.91
2022-11-25T22:16:32.259Z,100169.53
2022-11-25T22:18:59.607Z,100176.59
2022-11-25T22:21:26.448Z,100173.19
2022-11-25T22:23:52.866Z,100179.16
2022-11-25T22:26:46.550Z,100186.19
2022-11-25T22:29:21.637Z,100184.41
2022-11-25T22:31:49.102Z,100190.69
2022-11-25T22:34:21.956Z,100188.38
2022-11-25T22:36:49.192Z,100194.00
2022-11-25T22:39:26.311Z,100193.56
2022-11-25T22:42:07.572Z,100199.47
2022-11-25T22:44:40.015Z,100206.09
2022-11-25T22:47:07.618Z,100194.13
2022-11-25T22:49:39.715Z,100192.84
2022-11-25T22:52:18.625Z,100211.75
2022-11-25T22:54:45.009Z,100219.03
2022-11-25T22:57:11.534Z,100216.56
2022-11-25T22:59:37.973Z,100217.28
2022-11-25T23:02:04.694Z,100215.81
2022-11-25T23:04:31.083Z,100218.78
2022-11-25T23:06:57.860Z,100231.19
2022-11-25T23:09:24.375Z,100231.81
2022-11-25T23:11:50.774Z,100236.94
2022-11-25T23:14:17.128Z,100244.94
2022-11-25T23:16:43.814Z,100251.91
2022-11-25T23:19:16.777Z,100250.09
2022-11-25T23:21:45.383Z,100254.78
2022-11-25T23:24:14.028Z,100258.59
2022-11-25T23:26:40.772Z,100263.38
2022-11-25T23:29:07.407Z,100265.81
2022-11-25T23:31:36.190Z,100269.63
2022-11-25T23:34:06.266Z,100260.22
2022-11-25T23:36:44.660Z,100269.34
2022-11-25T23:39:19.037Z,100268.38
2022-11-25T23:41:45.604Z,100270.56
2022-11-25T23:44:15.176Z,100270.09
2022-11-25T23:46:44.057Z,100270.56
2022-11-25T23:49:22.876Z,100273.53
2022-11-25T23:51:49.863Z,100286.88
2022-11-25T23:54:20.942Z,100289.00
2022-11-25T23:56:47.947Z,100286.59
2022-11-25T23:59:16.328Z,100288.88
